Youngstown, Florida
Current Conditions -  °F | °C
As of 9:53 PM on Thursday 27 Nov 2014 (Local Time) from KECP Reporting Station
Clear Clear  
Wind Chill: 37°   Ceiling: Unl
Heat Index: 42°   Visibility: NA
Dew Point: 33°   Wind: 8mph
Humidity: 70%   Direction: 340°NNW
Pressure: 30.4"   Gusts: NA
Location:  30.36°N, 85.44°W
Report Text: KECP 280353Z AUTO 34007KT CLR 06/01 A3040 RMK AO2 SLP306 T00560006 $
Loading
Personal Weather Stations






























Interactive Weather Map New forecast layout! Learn more

10-Day Weather Forecast

Advertisements
Track Severe Weather on mobile